Time;durP1;ratioP1;P1;durP2;ratioP2;P2;SDS_P1;SDS_P2;PMS_P1;PMS_P2;Temp;Humidity;BMP_temperature;BMP_pressure;BME280_temperature;BME280_humidity;BME280_pressure;Samples;Min_cycle;Max_cycle;Signal;HPM_P1;HPM_P2
2023/11/20 00:01:54;;;;;;;4.15;1.73;;;14.50;79.10;;;;;;4952770;29;20055;-74
2023/11/20 00:04:20;;;;;;;4.55;2.10;;;14.60;79.20;;;;;;4958014;29;20586;-74
2023/11/20 00:06:46;;;;;;;4.00;1.67;;;14.60;79.20;;;;;;4952167;28;20039;-74
2023/11/20 00:09:12;;;;;;;4.05;1.80;;;14.60;79.20;;;;;;4937725;28;20419;-75
2023/11/20 00:11:38;;;;;;;4.47;1.70;;;14.60;79.20;;;;;;4952611;29;20031;-75
2023/11/20 00:14:04;;;;;;;5.70;2.53;;;14.50;79.20;;;;;;4937943;29;20506;-75
2023/11/20 00:16:30;;;;;;;5.18;1.80;;;14.60;79.20;;;;;;4950192;29;20115;-74
2023/11/20 00:18:55;;;;;;;2.55;1.50;;;14.60;79.20;;;;;;4951983;29;20043;-74
2023/11/20 00:21:21;;;;;;;3.33;1.50;;;14.60;79.20;;;;;;4950650;29;20043;-74
2023/11/20 00:23:47;;;;;;;4.72;1.83;;;14.60;79.20;;;;;;4948454;29;20118;-74
2023/11/20 00:26:15;;;;;;;3.40;1.77;;;14.60;79.20;;;;;;4935356;29;20085;-74
2023/11/20 00:28:44;;;;;;;3.85;1.50;;;14.60;79.20;;;;;;4951117;29;20039;-74
2023/11/20 00:31:14;;;;;;;4.03;1.60;;;14.50;79.20;;;;;;4934722;29;20113;-74
2023/11/20 00:33:40;;;;;;;4.18;1.63;;;14.60;79.20;;;;;;4954252;29;20039;-74
2023/11/20 00:36:07;;;;;;;3.95;1.83;;;14.50;79.20;;;;;;4952419;29;20162;-74
2023/11/20 00:38:32;;;;;;;3.50;1.40;;;14.50;79.20;;;;;;4952178;29;20046;-74
2023/11/20 00:40:58;;;;;;;3.28;1.45;;;14.50;79.20;;;;;;4935587;29;20047;-74
2023/11/20 00:43:24;;;;;;;4.82;1.95;;;14.50;79.20;;;;;;4929899;29;20037;-74
2023/11/20 00:45:49;;;;;;;5.22;1.98;;;14.50;79.20;;;;;;4932097;29;20036;-74
2023/11/20 00:48:15;;;;;;;5.22;1.80;;;14.50;79.20;;;;;;4950016;29;20388;-74
2023/11/20 00:50:41;;;;;;;4.13;1.70;;;14.50;79.20;;;;;;4935699;29;20028;-75
2023/11/20 00:53:07;;;;;;;4.25;1.58;;;14.60;79.20;;;;;;4935158;29;20111;-74
2023/11/20 00:55:33;;;;;;;4.00;1.55;;;14.50;79.20;;;;;;4927992;29;20034;-74
2023/11/20 00:57:58;;;;;;;3.25;1.45;;;14.60;79.20;;;;;;4928828;29;20023;-75
2023/11/20 01:00:25;;;;;;;3.75;1.42;;;14.50;79.20;;;;;;4932652;29;20039;-74
2023/11/20 01:02:51;;;;;;;4.65;1.73;;;14.50;79.20;;;;;;4949797;29;20086;-74
2023/11/20 01:05:18;;;;;;;4.85;1.58;;;14.50;79.20;;;;;;4933742;29;20045;-75
2023/11/20 01:07:44;;;;;;;3.20;1.42;;;14.50;79.20;;;;;;4934423;29;20058;-74
2023/11/20 01:10:10;;;;;;;3.80;1.88;;;14.60;79.20;;;;;;4950569;29;20395;-74
2023/11/20 01:12:36;;;;;;;3.72;1.65;;;14.60;79.20;;;;;;4949991;29;20527;-74
2023/11/20 01:15:03;;;;;;;4.25;1.70;;;14.60;79.30;;;;;;4949919;29;20373;-74
2023/11/20 01:17:29;;;;;;;3.53;1.60;;;14.50;79.20;;;;;;4949539;29;20061;-74
2023/11/20 01:19:55;;;;;;;2.85;1.50;;;14.50;79.20;;;;;;4948228;28;20089;-74
2023/11/20 01:22:20;;;;;;;3.95;1.73;;;14.50;79.20;;;;;;4931668;29;20035;-74
2023/11/20 01:24:46;;;;;;;3.22;1.67;;;14.60;79.20;;;;;;4951776;29;20119;-74
2023/11/20 01:27:12;;;;;;;2.85;1.48;;;14.50;79.20;;;;;;4934069;29;20031;-74
2023/11/20 01:29:39;;;;;;;3.10;1.38;;;14.60;79.20;;;;;;4932946;29;20063;-74
2023/11/20 01:32:06;;;;;;;3.55;1.60;;;14.60;79.30;;;;;;4949768;29;20431;-74
2023/11/20 01:34:32;;;;;;;3.80;1.50;;;14.60;79.30;;;;;;4949222;29;20122;-74
2023/11/20 01:36:58;;;;;;;4.72;1.88;;;14.50;79.20;;;;;;4948979;29;20544;-74
2023/11/20 01:39:24;;;;;;;2.85;1.50;;;14.50;79.20;;;;;;4951025;29;20476;-74
2023/11/20 01:41:49;;;;;;;3.30;1.60;;;14.50;79.20;;;;;;4935324;29;20464;-74
2023/11/20 01:44:16;;;;;;;3.05;1.60;;;14.50;79.20;;;;;;4951632;29;20067;-74
2023/11/20 01:46:42;;;;;;;4.63;1.73;;;14.50;79.20;;;;;;4949852;29;20086;-74
2023/11/20 01:49:08;;;;;;;3.55;1.52;;;14.50;79.80;;;;;;4951120;28;20122;-74
2023/11/20 01:51:35;;;;;;;2.92;1.67;;;14.50;79.20;;;;;;4949991;28;20062;-74
2023/11/20 01:54:02;;;;;;;3.03;1.50;;;14.50;79.20;;;;;;4936157;29;20402;-74
2023/11/20 01:56:29;;;;;;;4.25;1.40;;;14.50;79.20;;;;;;4950820;29;20364;-74
2023/11/20 01:58:57;;;;;;;3.33;1.60;;;14.50;79.20;;;;;;4934797;29;20035;-74
2023/11/20 02:01:23;;;;;;;5.05;1.75;;;14.50;79.20;;;;;;4932454;29;20649;-74
2023/11/20 02:04:00;;;;;;;2.55;1.33;;;14.50;79.20;;;;;;4951378;29;20498;-74
2023/11/20 02:06:26;;;;;;;3.10;1.45;;;14.50;79.30;;;;;;4948869;29;20031;-74
2023/11/20 02:08:52;;;;;;;3.30;1.48;;;14.50;79.20;;;;;;4927692;29;20051;-74
2023/11/20 02:11:19;;;;;;;3.10;1.50;;;14.50;79.20;;;;;;4948870;29;20086;-74
2023/11/20 02:13:47;;;;;;;3.88;1.80;;;14.50;79.20;;;;;;4922470;29;20455;-74
2023/11/20 02:16:13;;;;;;;3.42;1.60;;;14.50;79.30;;;;;;4933309;29;20086;-75
2023/11/20 02:18:41;;;;;;;5.10;1.60;;;14.50;79.30;;;;;;4951880;29;20039;-74
2023/11/20 02:21:07;;;;;;;3.05;1.50;;;14.50;79.20;;;;;;4919065;29;20031;-74
2023/11/20 02:23:32;;;;;;;2.88;1.40;;;14.50;79.20;;;;;;4947550;28;20034;-74
2023/11/20 02:26:29;;;;;;;2.85;1.48;;;14.50;79.20;;;;;;4948044;29;20058;-74
2023/11/20 02:29:17;;;;;;;2.15;1.40;;;14.50;79.30;;;;;;4950870;29;20039;-74
2023/11/20 02:31:43;;;;;;;3.38;1.90;;;14.50;79.30;;;;;;4948115;29;20387;-74
2023/11/20 02:34:09;;;;;;;2.50;1.40;;;14.50;79.20;;;;;;4952027;28;20027;-74
2023/11/20 02:36:34;;;;;;;3.25;1.50;;;14.50;79.90;;;;;;4954593;29;20034;-74
2023/11/20 02:39:01;;;;;;;3.83;1.70;;;14.50;79.30;;;;;;4936363;29;20592;-74
2023/11/20 02:41:27;;;;;;;1.95;1.23;;;14.50;79.30;;;;;;4953395;29;20078;-74
2023/11/20 02:43:52;;;;;;;2.88;1.30;;;14.50;79.30;;;;;;4935429;29;20035;-74
2023/11/20 02:46:18;;;;;;;2.42;1.55;;;14.50;79.30;;;;;;4937852;29;20388;-75
2023/11/20 02:48:44;;;;;;;3.55;1.50;;;14.50;79.30;;;;;;4954143;29;20031;-74
2023/11/20 02:51:10;;;;;;;2.35;1.40;;;14.40;79.30;;;;;;4953651;28;20061;-74
2023/11/20 02:53:36;;;;;;;3.35;1.60;;;14.40;79.30;;;;;;4954023;29;20098;-74
2023/11/20 02:56:02;;;;;;;2.42;1.52;;;14.40;79.30;;;;;;4922862;29;20035;-74
2023/11/20 02:58:28;;;;;;;3.30;1.48;;;14.40;79.30;;;;;;4954844;29;20031;-74
2023/11/20 03:00:54;;;;;;;4.35;1.50;;;14.40;79.30;;;;;;4954603;29;20083;-74
2023/11/20 03:03:19;;;;;;;2.22;1.58;;;14.40;79.30;;;;;;4950217;29;20467;-74
2023/11/20 03:05:45;;;;;;;3.33;1.55;;;14.40;79.30;;;;;;4954647;29;20035;-74
2023/11/20 03:08:11;;;;;;;2.25;1.20;;;14.40;79.30;;;;;;4936042;29;20519;-74
2023/11/20 03:10:40;;;;;;;3.28;1.48;;;14.40;79.40;;;;;;4920415;29;20046;-74
2023/11/20 03:13:06;;;;;;;3.78;1.70;;;14.40;80.00;;;;;;4953726;28;20031;-74
2023/11/20 03:15:32;;;;;;;2.95;1.40;;;14.40;79.30;;;;;;4954494;29;20027;-74
2023/11/20 03:17:57;;;;;;;4.28;1.60;;;14.40;79.40;;;;;;4945249;29;20802;-74
2023/11/20 03:20:23;;;;;;;3.22;1.52;;;14.40;79.40;;;;;;4949821;29;20392;-74
2023/11/20 03:22:50;;;;;;;3.33;1.48;;;14.40;79.40;;;;;;4937432;29;20498;-74
2023/11/20 03:25:15;;;;;;;3.70;1.55;;;14.40;79.40;;;;;;4953183;29;20372;-74
2023/11/20 03:27:42;;;;;;;1.48;1.10;;;14.40;79.40;;;;;;4946161;29;20031;-75
2023/11/20 03:30:11;;;;;;;3.10;1.38;;;14.40;79.40;;;;;;4948042;29;20047;-74
2023/11/20 03:32:37;;;;;;;4.78;1.42;;;14.40;79.40;;;;;;4936766;29;20312;-74
2023/11/20 03:35:06;;;;;;;2.42;1.30;;;14.40;79.40;;;;;;4937566;29;20065;-74
2023/11/20 03:37:32;;;;;;;3.67;1.65;;;14.40;79.50;;;;;;4932047;29;20055;-74
2023/11/20 03:39:58;;;;;;;3.95;1.67;;;14.30;79.40;;;;;;4953665;29;20104;-74
2023/11/20 03:42:24;;;;;;;3.42;1.35;;;14.30;79.40;;;;;;4949552;29;20035;-74
2023/11/20 03:44:51;;;;;;;2.00;1.35;;;14.30;79.40;;;;;;4935010;29;20031;-74
2023/11/20 03:47:17;;;;;;;3.85;1.27;;;14.30;79.40;;;;;;4934745;29;20484;-75
2023/11/20 03:49:43;;;;;;;3.85;1.63;;;14.30;79.40;;;;;;4950086;29;20043;-74
2023/11/20 03:52:09;;;;;;;2.03;1.10;;;14.30;79.40;;;;;;4953740;29;20395;-74
2023/11/20 03:54:34;;;;;;;4.40;1.50;;;14.30;79.40;;;;;;4949026;29;20031;-74
2023/11/20 03:57:00;;;;;;;2.65;1.42;;;14.30;79.40;;;;;;4949331;29;20039;-74
2023/11/20 03:59:26;;;;;;;2.97;1.50;;;14.30;79.40;;;;;;4951395;29;20050;-74
2023/11/20 04:01:52;;;;;;;2.50;1.42;;;14.30;79.40;;;;;;4933373;29;20031;-74
2023/11/20 04:04:18;;;;;;;3.88;1.60;;;14.30;79.40;;;;;;4950820;29;20036;-74
2023/11/20 04:06:43;;;;;;;2.10;1.20;;;14.30;79.40;;;;;;4933432;29;20027;-74
2023/11/20 04:09:09;;;;;;;2.53;1.33;;;14.30;79.40;;;;;;4948472;29;20066;-74
2023/11/20 04:11:35;;;;;;;3.45;1.40;;;14.30;79.40;;;;;;4953393;29;20175;-74
2023/11/20 04:14:01;;;;;;;3.47;1.50;;;14.30;79.40;;;;;;4952184;29;20535;-74
2023/11/20 04:16:27;;;;;;;4.15;1.40;;;14.30;80.00;;;;;;4935165;29;20035;-74
2023/11/20 04:18:53;;;;;;;3.58;1.50;;;14.30;79.40;;;;;;4936651;29;20484;-74
2023/11/20 04:21:19;;;;;;;2.00;1.20;;;14.30;79.40;;;;;;4954873;29;20126;-74
2023/11/20 04:23:44;;;;;;;3.42;1.60;;;14.30;79.40;;;;;;4949781;29;20725;-74
2023/11/20 04:26:10;;;;;;;3.65;1.40;;;14.30;79.40;;;;;;4948129;29;20035;-74
2023/11/20 04:28:36;;;;;;;3.67;1.50;;;14.30;79.40;;;;;;4950981;29;20076;-74
2023/11/20 04:31:02;;;;;;;5.15;1.98;;;14.30;79.40;;;;;;4931743;29;20040;-74
2023/11/20 04:33:28;;;;;;;1.33;1.13;;;14.30;79.40;;;;;;4947960;29;20067;-74
2023/11/20 04:35:53;;;;;;;2.35;1.17;;;14.20;79.40;;;;;;4951382;29;20046;-74
2023/11/20 04:38:19;;;;;;;2.55;1.33;;;14.20;79.40;;;;;;4945868;29;20051;-74
2023/11/20 04:40:48;;;;;;;3.40;1.17;;;14.30;79.40;;;;;;4931812;29;20039;-74
2023/11/20 04:43:15;;;;;;;4.47;1.60;;;14.20;79.30;;;;;;4947042;29;20048;-74
2023/11/20 04:45:40;;;;;;;3.45;1.40;;;14.20;79.30;;;;;;4950759;28;20058;-74
2023/11/20 04:48:08;;;;;;;3.50;1.58;;;14.20;79.40;;;;;;4952787;28;20491;-74
2023/11/20 04:50:34;;;;;;;3.85;1.48;;;14.20;79.40;;;;;;4935735;29;20114;-74
2023/11/20 04:53:00;;;;;;;3.60;1.45;;;14.20;79.40;;;;;;4952974;29;20134;-74
2023/11/20 04:55:26;;;;;;;2.65;1.30;;;14.20;79.40;;;;;;4951277;28;20035;-74
2023/11/20 04:57:51;;;;;;;1.70;1.20;;;14.20;79.40;;;;;;4952240;29;21212;-74
2023/11/20 05:00:18;;;;;;;2.45;1.10;;;14.20;79.40;;;;;;4951510;29;20090;-74
2023/11/20 05:02:44;;;;;;;2.47;1.33;;;14.20;79.40;;;;;;4951622;29;20119;-74
2023/11/20 05:05:10;;;;;;;2.83;1.40;;;14.20;79.40;;;;;;4931362;29;20047;-74
2023/11/20 05:07:36;;;;;;;2.92;1.20;;;14.20;79.40;;;;;;4948978;29;20051;-74
2023/11/20 05:10:02;;;;;;;3.75;1.48;;;14.20;79.40;;;;;;4950160;29;20095;-74
2023/11/20 05:12:28;;;;;;;2.28;1.23;;;14.20;79.40;;;;;;4952267;29;20046;-74
2023/11/20 05:14:53;;;;;;;3.58;1.67;;;14.20;79.50;;;;;;4950212;29;20042;-74
2023/11/20 05:17:20;;;;;;;2.45;1.27;;;14.20;79.50;;;;;;4952052;29;20039;-75
2023/11/20 05:19:46;;;;;;;3.78;1.60;;;14.10;79.40;;;;;;4952349;29;20065;-74
2023/11/20 05:22:12;;;;;;;2.90;1.20;;;14.20;79.50;;;;;;4950790;28;20059;-74
2023/11/20 05:24:40;;;;;;;2.75;1.27;;;14.10;79.40;;;;;;4935531;29;20066;-74
2023/11/20 05:27:07;;;;;;;3.88;1.45;;;14.10;79.40;;;;;;4951466;29;20042;-74
2023/11/20 05:29:33;;;;;;;2.72;1.40;;;14.10;79.40;;;;;;4932301;29;20035;-74
2023/11/20 05:31:58;;;;;;;2.50;1.15;;;14.10;79.40;;;;;;4951353;29;20037;-74
2023/11/20 05:34:24;;;;;;;3.92;1.60;;;14.10;79.40;;;;;;4926678;29;20043;-74
2023/11/20 05:36:50;;;;;;;2.65;1.52;;;14.10;79.40;;;;;;4951651;29;20042;-75
2023/11/20 05:39:18;;;;;;;2.63;1.30;;;14.10;79.40;;;;;;4948774;29;20063;-74
2023/11/20 05:41:45;;;;;;;3.70;1.33;;;14.10;79.40;;;;;;4945397;29;20031;-74
2023/11/20 05:44:11;;;;;;;2.22;1.38;;;14.10;79.40;;;;;;4949893;29;20027;-74
2023/11/20 05:46:36;;;;;;;3.55;1.27;;;14.10;79.40;;;;;;4951855;29;20038;-74
2023/11/20 05:49:02;;;;;;;2.85;1.30;;;14.10;79.40;;;;;;4950032;29;20087;-74
2023/11/20 05:51:28;;;;;;;3.15;1.42;;;14.10;79.40;;;;;;4952632;29;20118;-74
2023/11/20 05:53:53;;;;;;;1.40;1.08;;;14.10;79.40;;;;;;4949192;29;20094;-73
2023/11/20 05:56:19;;;;;;;2.25;1.25;;;14.10;79.40;;;;;;4952126;29;20475;-74
2023/11/20 05:58:45;;;;;;;2.78;1.40;;;14.10;79.40;;;;;;4951288;29;20181;-74
2023/11/20 06:01:12;;;;;;;3.30;1.40;;;14.10;79.40;;;;;;4950086;29;20496;-74
2023/11/20 06:03:38;;;;;;;1.98;1.35;;;14.10;79.40;;;;;;4950538;29;20027;-74
2023/11/20 06:06:04;;;;;;;2.95;1.20;;;14.10;79.40;;;;;;4931946;29;20111;-74
2023/11/20 06:08:31;;;;;;;3.10;1.35;;;14.00;79.40;;;;;;4955813;28;20492;-74
2023/11/20 06:10:56;;;;;;;1.88;1.17;;;14.10;79.50;;;;;;4954113;29;20480;-74
2023/11/20 06:13:22;;;;;;;3.15;1.27;;;14.00;79.40;;;;;;4951354;29;20038;-74
2023/11/20 06:15:48;;;;;;;2.78;1.30;;;14.00;79.40;;;;;;4950026;29;20122;-74
2023/11/20 06:18:13;;;;;;;2.78;1.40;;;14.00;79.40;;;;;;4954350;29;20496;-74
2023/11/20 06:20:39;;;;;;;2.63;1.65;;;14.00;79.40;;;;;;4954225;29;20046;-74
2023/11/20 06:23:09;;;;;;;2.35;1.23;;;14.00;79.50;;;;;;4948932;29;20103;-74
2023/11/20 06:25:34;;;;;;;3.20;1.60;;;14.00;79.40;;;;;;4935074;29;20036;-74
2023/11/20 06:28:00;;;;;;;4.13;1.35;;;14.00;79.40;;;;;;4952583;29;20059;-73
2023/11/20 06:30:26;;;;;;;1.98;1.50;;;14.00;79.40;;;;;;4950223;29;20042;-74
2023/11/20 06:32:51;;;;;;;2.78;1.42;;;14.00;79.40;;;;;;4954143;29;20040;-73
2023/11/20 06:35:17;;;;;;;2.67;1.25;;;14.00;79.40;;;;;;4955013;28;20050;-73
2023/11/20 06:37:43;;;;;;;3.40;1.55;;;14.00;79.40;;;;;;4949099;29;20038;-74
2023/11/20 06:40:10;;;;;;;2.97;1.55;;;14.00;79.40;;;;;;4948499;29;20094;-74
2023/11/20 06:42:36;;;;;;;3.80;1.48;;;14.00;79.40;;;;;;4930531;29;20035;-74
2023/11/20 06:45:02;;;;;;;2.47;1.30;;;14.00;79.50;;;;;;4935094;29;20038;-74
2023/11/20 06:47:28;;;;;;;5.20;1.58;;;13.90;79.40;;;;;;4935103;29;20049;-74
2023/11/20 06:49:53;;;;;;;1.83;1.23;;;14.00;79.50;;;;;;4953262;29;20102;-73
2023/11/20 06:52:19;;;;;;;3.58;1.50;;;13.90;79.40;;;;;;4953914;29;20035;-77
2023/11/20 06:54:45;;;;;;;4.45;1.35;;;13.90;79.50;;;;;;4936400;29;20062;-74
2023/11/20 06:57:11;;;;;;;2.40;1.23;;;13.90;79.40;;;;;;4954050;29;20021;-74
2023/11/20 06:59:37;;;;;;;3.50;1.45;;;13.90;79.50;;;;;;4935073;29;20039;-75
2023/11/20 07:02:03;;;;;;;3.78;1.33;;;13.90;79.50;;;;;;4950507;29;20436;-74
2023/11/20 07:04:35;;;;;;;2.55;1.50;;;13.90;79.50;;;;;;4935529;29;20110;-74
2023/11/20 07:07:01;;;;;;;2.72;1.70;;;13.90;80.20;;;;;;4946433;29;20067;-76
2023/11/20 07:09:30;;;;;;;2.17;1.30;;;13.90;79.50;;;;;;4953210;29;20055;-75
2023/11/20 07:11:56;;;;;;;2.30;1.38;;;13.90;79.50;;;;;;4952584;29;20039;-74
2023/11/20 07:14:22;;;;;;;2.63;1.30;;;13.90;79.50;;;;;;4954054;28;20035;-74
2023/11/20 07:16:48;;;;;;;2.97;1.27;;;13.80;79.50;;;;;;4954382;29;20042;-74
2023/11/20 07:19:14;;;;;;;2.67;1.50;;;13.90;79.50;;;;;;4954055;28;20456;-74
2023/11/20 07:21:43;;;;;;;2.30;1.25;;;13.80;79.50;;;;;;4938844;29;20117;-74
2023/11/20 07:24:10;;;;;;;3.35;1.20;;;13.80;79.50;;;;;;4947662;29;20046;-74
2023/11/20 07:26:36;;;;;;;3.00;1.20;;;13.80;79.50;;;;;;4939121;29;20122;-74
2023/11/20 07:29:01;;;;;;;4.03;1.65;;;13.80;79.50;;;;;;4953616;28;20179;-74
2023/11/20 07:31:28;;;;;;;3.05;1.50;;;13.80;79.50;;;;;;4956072;28;20027;-74
2023/11/20 07:33:54;;;;;;;3.85;1.48;;;13.80;79.50;;;;;;4954443;29;20023;-74
2023/11/20 07:36:20;;;;;;;3.63;1.58;;;13.80;79.50;;;;;;4955294;29;20494;-74
2023/11/20 07:38:47;;;;;;;3.00;1.48;;;13.80;79.50;;;;;;4954740;29;20031;-74
2023/11/20 07:41:13;;;;;;;2.70;1.27;;;13.80;79.50;;;;;;4945173;29;20028;-74
2023/11/20 07:43:39;;;;;;;3.42;1.40;;;13.80;79.50;;;;;;4936233;29;20139;-74
2023/11/20 07:46:06;;;;;;;2.78;1.50;;;13.70;79.50;;;;;;4952925;29;20110;-74
2023/11/20 07:48:32;;;;;;;3.70;1.40;;;13.70;79.50;;;;;;4948767;29;20039;-74
2023/11/20 07:50:58;;;;;;;3.00;1.27;;;13.70;79.50;;;;;;4955240;28;20023;-74
2023/11/20 07:53:24;;;;;;;3.40;1.50;;;13.70;79.40;;;;;;4955406;29;20038;-74
2023/11/20 07:55:50;;;;;;;3.40;1.40;;;13.80;79.50;;;;;;4955323;29;20118;-74
2023/11/20 07:58:16;;;;;;;3.47;1.52;;;13.70;80.10;;;;;;4952767;29;20070;-74
2023/11/20 08:00:42;;;;;;;4.00;1.60;;;13.70;79.50;;;;;;4961533;29;20027;-74
2023/11/20 08:03:08;;;;;;;2.80;1.40;;;13.70;79.50;;;;;;4931487;29;20035;-74
2023/11/20 08:05:35;;;;;;;3.08;1.60;;;13.70;79.50;;;;;;4960258;29;20028;-74
2023/11/20 08:08:01;;;;;;;3.38;1.50;;;13.70;79.50;;;;;;4958800;29;20075;-74
2023/11/20 08:10:26;;;;;;;3.42;1.67;;;13.70;79.50;;;;;;4958473;29;20042;-74
2023/11/20 08:12:52;;;;;;;1.95;1.20;;;13.70;79.50;;;;;;4955628;28;20054;-74
2023/11/20 08:15:18;;;;;;;3.08;1.50;;;13.70;79.50;;;;;;4954005;29;20042;-74
2023/11/20 08:17:44;;;;;;;3.75;1.70;;;13.70;79.50;;;;;;4954356;29;20064;-74
2023/11/20 08:20:10;;;;;;;3.30;1.50;;;13.70;79.50;;;;;;4953742;29;20027;-74
2023/11/20 08:22:39;;;;;;;5.32;1.70;;;13.70;79.50;;;;;;4955416;28;20039;-75
2023/11/20 08:25:05;;;;;;;2.65;1.50;;;13.70;79.50;;;;;;4942711;29;20063;-74
2023/11/20 08:27:31;;;;;;;4.68;2.00;;;13.70;79.50;;;;;;4953744;29;20091;-74
2023/11/20 08:29:57;;;;;;;4.45;1.92;;;13.70;79.50;;;;;;4945541;29;20055;-74
2023/11/20 08:32:27;;;;;;;4.07;1.80;;;13.70;79.50;;;;;;4953870;28;20039;-74
2023/11/20 08:34:52;;;;;;;4.50;1.73;;;13.70;79.50;;;;;;4935647;29;20481;-74
2023/11/20 08:37:18;;;;;;;3.03;1.70;;;13.70;79.50;;;;;;4933807;29;20047;-74
2023/11/20 08:39:46;;;;;;;3.03;1.52;;;13.60;79.50;;;;;;4953663;29;20389;-74
2023/11/20 08:42:12;;;;;;;2.95;1.50;;;13.60;79.50;;;;;;4922466;29;20548;-74
2023/11/20 08:44:38;;;;;;;3.30;1.70;;;13.60;79.50;;;;;;4952236;29;20114;-74
2023/11/20 08:47:05;;;;;;;4.10;1.70;;;13.60;79.50;;;;;;4936438;29;20119;-74
2023/11/20 08:49:30;;;;;;;3.38;1.50;;;13.60;79.50;;;;;;4952186;29;20047;-74
2023/11/20 08:51:56;;;;;;;3.60;1.60;;;13.60;79.50;;;;;;4952976;29;20106;-74
2023/11/20 08:54:24;;;;;;;3.42;1.75;;;13.60;79.50;;;;;;4952978;29;20082;-74
2023/11/20 08:56:51;;;;;;;5.85;2.17;;;13.60;79.50;;;;;;4914978;29;20484;-74
2023/11/20 08:59:20;;;;;;;3.80;1.50;;;13.60;79.60;;;;;;4927181;29;20039;-74
2023/11/20 09:01:47;;;;;;;2.50;1.52;;;13.60;79.60;;;;;;4942356;29;20111;-74
2023/11/20 09:04:13;;;;;;;4.28;2.00;;;13.60;79.60;;;;;;4948621;28;20075;-74
2023/11/20 09:06:39;;;;;;;3.15;1.50;;;13.60;79.60;;;;;;4952221;29;20475;-74
2023/11/20 09:09:05;;;;;;;2.53;1.33;;;13.60;79.60;;;;;;4953687;28;20051;-74
2023/11/20 09:11:31;;;;;;;4.30;1.85;;;13.60;79.60;;;;;;4953117;28;20031;-74
2023/11/20 09:13:57;;;;;;;4.32;1.77;;;13.60;79.60;;;;;;4953003;29;20042;-74
2023/11/20 09:16:23;;;;;;;3.90;1.90;;;13.60;79.70;;;;;;4935683;29;20040;-74
2023/11/20 09:18:49;;;;;;;3.50;1.80;;;13.60;79.60;;;;;;4950953;29;20113;-74
2023/11/20 09:21:16;;;;;;;3.67;1.65;;;13.60;79.60;;;;;;4933272;29;20042;-74
2023/11/20 09:23:45;;;;;;;4.28;1.70;;;13.60;79.60;;;;;;4952558;29;20051;-74
2023/11/20 09:26:11;;;;;;;4.35;1.55;;;13.60;79.60;;;;;;4940579;29;20038;-74
2023/11/20 09:28:40;;;;;;;2.95;1.38;;;13.60;79.70;;;;;;4953248;29;20480;-74
2023/11/20 09:31:07;;;;;;;3.13;1.75;;;13.60;79.70;;;;;;4929834;29;20388;-74
2023/11/20 09:33:34;;;;;;;3.45;1.70;;;13.60;79.70;;;;;;4953109;29;20079;-74
2023/11/20 09:36:00;;;;;;;3.15;1.80;;;13.60;79.70;;;;;;4946473;28;20027;-74
2023/11/20 09:38:26;;;;;;;4.60;1.52;;;13.60;79.70;;;;;;4952604;29;20499;-75
2023/11/20 09:40:52;;;;;;;4.22;1.77;;;13.60;79.70;;;;;;4951960;29;20035;-74
2023/11/20 09:43:21;;;;;;;3.83;1.55;;;13.60;79.80;;;;;;4951850;28;20038;-74
2023/11/20 09:45:53;;;;;;;3.10;1.60;;;13.60;80.40;;;;;;4935209;29;20032;-75
2023/11/20 09:48:20;;;;;;;4.43;1.70;;;13.60;79.80;;;;;;4950868;29;20480;-74
2023/11/20 09:50:49;;;;;;;4.30;1.52;;;13.60;79.80;;;;;;4953323;29;20114;-75
2023/11/20 09:53:14;;;;;;;3.13;1.40;;;13.60;79.80;;;;;;4952091;29;20047;-74
2023/11/20 09:55:40;;;;;;;4.35;1.63;;;13.60;79.80;;;;;;4936352;29;20035;-74
2023/11/20 09:58:06;;;;;;;3.53;1.65;;;13.60;79.80;;;;;;4951888;29;20074;-74
2023/11/20 10:00:32;;;;;;;3.88;1.63;;;13.60;79.90;;;;;;4952198;29;20110;-74
2023/11/20 10:02:59;;;;;;;3.50;1.75;;;13.60;79.90;;;;;;4953858;29;20127;-74
2023/11/20 10:05:31;;;;;;;4.32;1.92;;;13.60;79.90;;;;;;4952858;29;20046;-74
2023/11/20 10:07:58;;;;;;;5.30;1.98;;;13.60;79.90;;;;;;4948273;29;20138;-74
2023/11/20 10:10:25;;;;;;;3.38;1.55;;;13.60;79.90;;;;;;4949203;29;20040;-74
2023/11/20 10:12:53;;;;;;;5.88;1.75;;;13.70;80.00;;;;;;4950587;29;20112;-74
2023/11/20 10:15:21;;;;;;;3.95;2.10;;;13.60;79.90;;;;;;4952570;28;20036;-74
2023/11/20 10:17:47;;;;;;;5.07;1.90;;;13.70;80.00;;;;;;4952032;28;20041;-74
2023/11/20 10:20:15;;;;;;;3.47;1.70;;;13.70;80.00;;;;;;4952841;29;20035;-74
2023/11/20 10:22:41;;;;;;;5.00;1.90;;;13.70;80.00;;;;;;4952578;29;20431;-74
2023/11/20 10:25:08;;;;;;;5.68;1.90;;;13.70;80.00;;;;;;4935675;29;20035;-74
2023/11/20 10:27:34;;;;;;;4.18;1.88;;;13.70;80.00;;;;;;4947605;29;20034;-74
2023/11/20 10:30:03;;;;;;;3.55;2.10;;;13.70;80.00;;;;;;4953167;29;20043;-74
2023/11/20 10:32:29;;;;;;;4.55;1.80;;;13.70;80.00;;;;;;4950930;29;20042;-75
2023/11/20 10:35:14;;;;;;;3.55;1.98;;;13.70;80.00;;;;;;4929573;29;20040;-74
2023/11/20 10:38:01;;;;;;;3.22;1.92;;;13.70;80.10;;;;;;4955794;28;20106;-74
2023/11/20 10:40:28;;;;;;;5.07;2.38;;;13.70;80.10;;;;;;4953785;29;20100;-74
2023/11/20 10:42:54;;;;;;;4.53;2.10;;;13.70;80.00;;;;;;4949027;28;20024;-75
2023/11/20 10:45:23;;;;;;;3.72;2.33;;;13.70;80.00;;;;;;4950860;29;20027;-74
2023/11/20 10:47:49;;;;;;;4.43;2.22;;;13.70;80.00;;;;;;4952234;28;20037;-74
2023/11/20 10:50:17;;;;;;;4.68;2.05;;;13.70;80.00;;;;;;4933235;29;20119;-74
2023/11/20 10:52:47;;;;;;;4.88;2.83;;;13.70;80.00;;;;;;4951560;29;20373;-74
2023/11/20 10:55:14;;;;;;;4.35;2.08;;;13.70;80.10;;;;;;4950495;29;20034;-74
2023/11/20 10:57:40;;;;;;;5.88;2.45;;;13.70;80.10;;;;;;4955470;29;20134;-74
2023/11/20 11:00:11;;;;;;;4.65;2.45;;;13.70;80.10;;;;;;4956484;29;20063;-74
2023/11/20 11:02:42;;;;;;;5.47;2.08;;;13.70;80.10;;;;;;4939833;29;20028;-74
2023/11/20 11:05:10;;;;;;;3.45;2.17;;;13.80;80.10;;;;;;4939193;29;20542;-75
2023/11/20 11:07:40;;;;;;;5.40;2.38;;;13.70;80.10;;;;;;4955336;28;20050;-74
2023/11/20 11:10:14;;;;;;;4.68;2.13;;;13.70;80.10;;;;;;4956187;29;20059;-74
2023/11/20 11:12:44;;;;;;;4.53;2.50;;;13.70;80.10;;;;;;4955793;29;20372;-74
2023/11/20 11:15:13;;;;;;;4.20;2.50;;;13.80;80.20;;;;;;4955206;29;20035;-75
2023/11/20 11:18:08;;;;;;;5.05;2.72;;;13.80;80.20;;;;;;4939316;29;20020;-74
2023/11/20 11:20:52;;;;;;;5.38;2.60;;;13.80;80.30;;;;;;4956181;29;20081;-74
2023/11/20 11:23:42;;;;;;;4.00;2.25;;;13.80;80.20;;;;;;4948373;29;20054;-74
2023/11/20 11:26:39;;;;;;;4.20;2.50;;;13.80;80.20;;;;;;4942840;28;20036;-75
2023/11/20 11:29:08;;;;;;;4.35;2.50;;;13.80;80.20;;;;;;4948474;29;20047;-74
2023/11/20 11:31:49;;;;;;;6.05;2.58;;;13.90;80.20;;;;;;4936045;29;20074;-74
2023/11/20 11:34:35;;;;;;;4.45;2.47;;;13.90;80.20;;;;;;4950667;29;20031;-74
2023/11/20 11:37:09;;;;;;;3.78;2.47;;;13.90;80.20;;;;;;4951685;29;20024;-74
2023/11/20 11:39:57;;;;;;;4.88;2.45;;;13.90;80.20;;;;;;4950670;29;20395;-74
2023/11/20 11:42:37;;;;;;;4.57;2.63;;;13.90;80.20;;;;;;4951690;29;20454;-74
2023/11/20 11:45:12;;;;;;;5.03;2.50;;;13.90;80.10;;;;;;4952094;29;20023;-74
2023/11/20 11:47:45;;;;;;;4.85;2.53;;;13.90;80.20;;;;;;4949029;29;20126;-75
2023/11/20 11:50:14;;;;;;;4.90;2.80;;;13.90;80.20;;;;;;4951609;29;20118;-74
2023/11/20 11:52:40;;;;;;;4.80;2.47;;;13.90;80.10;;;;;;4954971;29;20388;-75
2023/11/20 11:55:12;;;;;;;3.03;2.50;;;14.00;80.20;;;;;;4923197;29;20035;-75
2023/11/20 11:57:50;;;;;;;4.40;2.53;;;14.00;80.20;;;;;;4955762;29;20059;-75
2023/11/20 12:00:16;;;;;;;3.78;2.50;;;14.00;80.20;;;;;;4954591;29;20038;-75
2023/11/20 12:02:52;;;;;;;4.35;2.60;;;14.00;80.20;;;;;;4952687;29;20079;-75
2023/11/20 12:05:18;;;;;;;3.50;2.28;;;14.00;80.20;;;;;;4954218;28;20078;-75
2023/11/20 12:07:54;;;;;;;4.32;2.40;;;14.00;80.20;;;;;;4948280;28;20051;-75
2023/11/20 12:10:41;;;;;;;3.35;2.33;;;14.10;80.30;;;;;;4954944;29;20047;-75
2023/11/20 12:13:10;;;;;;;4.93;2.60;;;14.10;80.30;;;;;;4924159;29;20034;-75
2023/11/20 12:15:39;;;;;;;4.18;2.53;;;14.10;80.20;;;;;;4955451;29;20031;-75
2023/11/20 12:18:10;;;;;;;3.92;2.55;;;14.10;80.20;;;;;;4936335;29;20038;-75
2023/11/20 12:21:07;;;;;;;3.35;2.35;;;14.10;80.20;;;;;;4955764;29;20031;-75
2023/11/20 12:23:42;;;;;;;3.25;2.33;;;14.10;80.20;;;;;;4952280;29;20484;-75
2023/11/20 12:26:12;;;;;;;3.45;2.17;;;14.10;80.10;;;;;;4952087;29;20039;-75
2023/11/20 12:28:40;;;;;;;5.07;2.42;;;14.10;80.10;;;;;;4937631;29;20099;-75
2023/11/20 12:31:07;;;;;;;4.78;2.30;;;14.10;80.10;;;;;;4936742;29;20038;-75
2023/11/20 12:33:39;;;;;;;5.47;2.40;;;14.10;80.10;;;;;;4953319;29;20042;-75
2023/11/20 12:36:06;;;;;;;3.67;2.28;;;14.20;80.10;;;;;;4937398;29;20027;-74
2023/11/20 12:38:33;;;;;;;5.82;2.60;;;14.20;80.10;;;;;;4952405;28;20058;-75
2023/11/20 12:41:03;;;;;;;4.43;2.35;;;14.20;80.10;;;;;;4953847;29;20106;-75
2023/11/20 12:43:30;;;;;;;3.75;2.00;;;14.20;80.00;;;;;;4955140;29;20036;-75
2023/11/20 12:45:56;;;;;;;4.45;2.30;;;14.20;80.00;;;;;;4938281;29;20027;-74
2023/11/20 12:48:22;;;;;;;4.68;2.70;;;14.20;80.00;;;;;;4953166;29;20468;-74
2023/11/20 12:50:49;;;;;;;4.45;2.28;;;14.20;80.10;;;;;;4949580;29;20039;-75